createdAt,value
2018-08-22T00:02:26.805Z,53.40
2018-08-22T00:05:07.434Z,53.30
2018-08-22T00:07:48.090Z,53.10
2018-08-22T00:10:28.742Z,52.80
2018-08-22T00:13:10.233Z,52.80
2018-08-22T00:15:51.542Z,52.70
2018-08-22T00:18:32.270Z,52.60
2018-08-22T00:21:12.815Z,52.40
2018-08-22T00:23:53.524Z,52.10
2018-08-22T00:26:34.090Z,51.90
2018-08-22T00:29:14.787Z,51.80
2018-08-22T00:31:56.297Z,51.40
2018-08-22T00:34:36.972Z,51.30
2018-08-22T00:37:18.527Z,51.10
2018-08-22T00:39:59.082Z,51.10
2018-08-22T00:42:39.763Z,51.00
2018-08-22T00:45:20.312Z,50.60
2018-08-22T00:48:01.018Z,50.60
2018-08-22T00:50:42.597Z,50.90
2018-08-22T00:53:24.109Z,50.70
2018-08-22T00:56:04.673Z,50.10
2018-08-22T00:58:45.289Z,50.30
2018-08-22T01:01:25.886Z,50.00
2018-08-22T01:04:06.633Z,49.90
2018-08-22T01:06:49.005Z,49.70
2018-08-22T01:09:29.734Z,49.50
2018-08-22T01:12:10.340Z,49.80
2018-08-22T01:14:51.832Z,49.50
2018-08-22T01:17:32.561Z,49.50
2018-08-22T01:20:14.081Z,49.30
2018-08-22T01:22:54.617Z,49.20
2018-08-22T01:25:35.319Z,49.50
2018-08-22T01:28:15.882Z,51.00
2018-08-22T01:30:56.426Z,52.50
2018-08-22T01:33:37.313Z,54.00
2018-08-22T01:36:18.774Z,54.10
2018-08-22T01:38:59.411Z,54.30
2018-08-22T01:41:39.975Z,54.50
2018-08-22T01:44:20.601Z,54.70
2018-08-22T01:47:01.975Z,55.40
2018-08-22T01:49:42.621Z,55.00
2018-08-22T01:52:23.278Z,54.70
2018-08-22T01:55:03.969Z,54.70
2018-08-22T01:57:45.301Z,55.00
2018-08-22T02:00:26.042Z,54.60
2018-08-22T02:03:07.393Z,54.80
2018-08-22T02:05:47.970Z,55.00
2018-08-22T02:08:28.486Z,55.20
2018-08-22T02:11:09.144Z,55.20
2018-08-22T02:13:49.676Z,55.60
2018-08-22T02:16:30.303Z,55.60
2018-08-22T02:19:11.769Z,55.70
2018-08-22T02:21:52.511Z,55.80
2018-08-22T02:24:33.141Z,56.00
2018-08-22T02:27:13.760Z,55.60
2018-08-22T02:29:54.451Z,55.70
2018-08-22T02:32:35.067Z,55.20
2018-08-22T02:35:16.765Z,55.00
2018-08-22T02:37:58.094Z,54.20
2018-08-22T02:40:39.522Z,53.80
2018-08-22T02:43:20.193Z,53.80
2018-08-22T02:46:01.000Z,54.00
2018-08-22T02:48:47.440Z,53.80
2018-08-22T02:51:28.004Z,53.90
2018-08-22T02:54:08.537Z,54.00
2018-08-22T02:56:50.057Z,53.90
2018-08-22T02:59:30.653Z,53.90
2018-08-22T03:02:11.377Z,53.70
2018-08-22T03:04:51.898Z,53.80
2018-08-22T03:07:32.549Z,53.80
2018-08-22T03:10:13.996Z,53.60
2018-08-22T03:12:54.681Z,53.60
2018-08-22T03:15:35.377Z,53.70
2018-08-22T03:18:16.812Z,53.80
2018-08-22T03:20:57.368Z,53.80
2018-08-22T03:23:37.914Z,54.00
2018-08-22T03:26:18.631Z,54.00
2018-08-22T03:29:00.217Z,54.10
2018-08-22T03:31:41.892Z,54.00
2018-08-22T03:34:23.431Z,54.10
2018-08-22T03:37:04.089Z,54.10
2018-08-22T03:39:44.610Z,54.00
2018-08-22T03:42:25.341Z,53.50
2018-08-22T03:45:06.757Z,53.20
2018-08-22T03:47:48.217Z,53.30
2018-08-22T03:50:29.810Z,53.40
2018-08-22T03:53:10.401Z,53.50
2018-08-22T03:55:50.906Z,53.20
2018-08-22T03:58:31.549Z,53.40
2018-08-22T04:01:13.266Z,53.20
2018-08-22T04:03:54.522Z,53.30
2018-08-22T04:06:36.037Z,53.30
2018-08-22T04:09:17.494Z,53.10
2018-08-22T04:11:58.126Z,53.10
2018-08-22T04:14:38.857Z,52.80
2018-08-22T04:17:20.229Z,52.60
2018-08-22T04:20:00.939Z,52.70
2018-08-22T04:22:41.762Z,52.70
2018-08-22T04:25:22.298Z,53.00
2018-08-22T04:28:03.852Z,52.90
2018-08-22T04:30:44.574Z,52.70
2018-08-22T04:33:25.213Z,52.50
2018-08-22T04:36:06.506Z,52.80
2018-08-22T04:38:47.199Z,53.30
2018-08-22T04:41:29.051Z,53.70
2018-08-22T04:44:10.048Z,54.60
2018-08-22T04:46:50.874Z,55.90
2018-08-22T04:49:31.469Z,57.10
2018-08-22T04:52:12.117Z,57.50
2018-08-22T04:54:52.836Z,57.80
2018-08-22T04:57:34.204Z,58.00
2018-08-22T05:00:15.081Z,57.90
2018-08-22T05:02:55.792Z,58.90
2018-08-22T05:05:36.360Z,59.70
2018-08-22T05:08:17.086Z,60.20
2018-08-22T05:10:57.740Z,60.00
2018-08-22T05:13:38.892Z,59.80
2018-08-22T05:16:19.853Z,60.60
2018-08-22T05:19:00.410Z,60.50
2018-08-22T05:21:41.990Z,60.30
2018-08-22T05:24:23.407Z,59.90
2018-08-22T05:27:04.115Z,59.80
2018-08-22T05:29:44.839Z,59.10
2018-08-22T05:32:25.355Z,58.90
2018-08-22T05:35:05.981Z,57.70
2018-08-22T05:37:47.435Z,56.80
2018-08-22T05:40:29.015Z,56.10
2018-08-22T05:43:09.693Z,55.80
2018-08-22T05:45:50.953Z,55.70
2018-08-22T05:48:32.254Z,55.80
2018-08-22T05:51:13.018Z,54.80
2018-08-22T05:53:53.617Z,54.20
2018-08-22T05:56:34.254Z,53.50
2018-08-22T05:59:14.873Z,53.50
2018-08-22T06:01:56.303Z,53.70
2018-08-22T06:04:37.056Z,53.70
2018-08-22T06:07:18.506Z,54.50
2018-08-22T06:09:59.316Z,54.40
2018-08-22T06:12:39.953Z,54.40
2018-08-22T06:15:20.662Z,54.70
2018-08-22T06:18:02.134Z,56.00
2018-08-22T06:20:42.734Z,57.00
2018-08-22T06:23:23.409Z,57.60
2018-08-22T06:26:04.944Z,57.60
2018-08-22T06:28:45.545Z,57.30
2018-08-22T06:31:26.154Z,57.50
2018-08-22T06:34:06.975Z,58.60
2018-08-22T06:36:48.988Z,57.50
2018-08-22T06:39:29.906Z,57.90
2018-08-22T06:42:11.230Z,57.00
2018-08-22T06:44:52.178Z,57.40
2018-08-22T06:47:32.876Z,58.40
2018-08-22T06:50:14.146Z,58.70
2018-08-22T06:52:55.947Z,59.30
2018-08-22T06:55:36.713Z,59.10
2018-08-22T06:58:17.384Z,58.80
2018-08-22T07:00:58.078Z,57.60
2018-08-22T07:03:38.733Z,58.00
2018-08-22T07:06:19.341Z,57.40
2018-08-22T07:08:59.940Z,57.40
2018-08-22T07:11:40.509Z,58.10
2018-08-22T07:14:21.090Z,58.70
2018-08-22T07:17:02.754Z,58.80
2018-08-22T07:19:44.260Z,59.10
2018-08-22T07:22:24.841Z,59.30
2018-08-22T07:25:05.545Z,59.90
2018-08-22T07:27:46.257Z,59.80
2018-08-22T07:30:26.755Z,60.10
2018-08-22T07:33:07.569Z,60.60
2018-08-22T07:35:49.756Z,59.60
2018-08-22T07:38:30.729Z,59.90
2018-08-22T07:41:12.142Z,59.30
2018-08-22T07:43:52.781Z,58.90
2018-08-22T07:46:33.485Z,58.30
2018-08-22T07:49:14.918Z,57.70
2018-08-22T07:51:55.763Z,57.60
2018-08-22T07:54:43.872Z,58.50
2018-08-22T07:57:24.546Z,58.60
2018-08-22T08:00:05.122Z,56.50
2018-08-22T08:02:46.614Z,57.40
2018-08-22T08:05:27.407Z,57.30
2018-08-22T08:08:08.867Z,56.80
2018-08-22T08:10:49.528Z,56.10
2018-08-22T08:13:30.917Z,55.30
2018-08-22T08:16:12.322Z,54.40
2018-08-22T08:18:53.150Z,54.10
2018-08-22T08:21:33.758Z,54.70
2018-08-22T08:24:14.354Z,53.40
2018-08-22T08:26:55.105Z,51.90
2018-08-22T08:29:35.664Z,50.60
2018-08-22T08:32:17.296Z,50.40
2018-08-22T08:34:58.690Z,49.30
2018-08-22T08:37:40.166Z,48.90
2018-08-22T08:40:20.849Z,48.40
2018-08-22T08:43:01.405Z,47.50
2018-08-22T08:45:42.233Z,47.00
2018-08-22T08:48:23.567Z,47.80
2018-08-22T08:51:04.341Z,47.10
2018-08-22T08:53:44.940Z,47.50
2018-08-22T08:56:25.633Z,47.50
2018-08-22T08:59:06.951Z,48.20
2018-08-22T09:01:47.693Z,48.00
2018-08-22T09:04:29.263Z,48.40
2018-08-22T09:07:09.850Z,48.60
2018-08-22T09:09:50.362Z,49.10
2018-08-22T09:12:30.989Z,49.80
2018-08-22T09:15:11.595Z,48.70
2018-08-22T09:17:52.117Z,49.80
2018-08-22T09:20:32.792Z,50.40
2018-08-22T09:23:14.145Z,50.20
2018-08-22T09:25:54.761Z,49.50
2018-08-22T09:28:36.369Z,49.00
2018-08-22T09:31:17.906Z,48.10
2018-08-22T09:33:58.418Z,48.00
2018-08-22T09:36:39.095Z,47.90
2018-08-22T09:39:20.017Z,48.40
2018-08-22T09:42:01.653Z,48.00
2018-08-22T09:44:42.929Z,47.70
2018-08-22T09:47:23.606Z,47.20
2018-08-22T09:50:04.343Z,48.20
2018-08-22T09:52:45.487Z,48.30
2018-08-22T09:55:26.867Z,48.40
2018-08-22T09:58:08.180Z,48.60
2018-08-22T10:00:54.725Z,48.70
2018-08-22T10:03:37.897Z,50.10
2018-08-22T10:06:19.678Z,49.40
2018-08-22T10:09:03.261Z,49.60
2018-08-22T10:11:45.006Z,50.30
2018-08-22T10:14:26.436Z,50.50
2018-08-22T10:17:07.894Z,50.50
2018-08-22T10:19:48.410Z,51.00
2018-08-22T10:22:29.033Z,51.50
2018-08-22T10:25:09.551Z,52.30
2018-08-22T10:27:50.055Z,53.70
2018-08-22T10:30:30.705Z,55.60
2018-08-22T10:33:11.466Z,53.90
2018-08-22T10:35:52.262Z,53.50
2018-08-22T10:38:33.661Z,54.60
2018-08-22T10:41:14.207Z,55.40
2018-08-22T10:43:55.679Z,55.80
2018-08-22T10:46:36.217Z,55.50
2018-08-22T10:49:16.985Z,55.60
2018-08-22T10:51:57.581Z,55.00
2018-08-22T10:54:38.234Z,55.10
2018-08-22T10:57:18.897Z,55.40
2018-08-22T10:59:59.412Z,55.40
2018-08-22T11:02:39.994Z,56.30
2018-08-22T11:05:20.601Z,55.30
2018-08-22T11:08:01.269Z,55.10
2018-08-22T11:10:42.017Z,55.20
2018-08-22T11:13:23.490Z,55.50
2018-08-22T11:16:05.070Z,55.50
2018-08-22T11:18:46.448Z,55.60
2018-08-22T11:21:27.138Z,56.30
2018-08-22T11:24:07.791Z,57.00
2018-08-22T11:26:49.332Z,56.30
2018-08-22T11:29:30.627Z,56.40
2018-08-22T11:32:11.496Z,56.60
2018-08-22T11:34:52.971Z,56.20
2018-08-22T11:37:33.697Z,55.60
2018-08-22T11:40:14.224Z,55.40
2018-08-22T11:42:54.833Z,55.90
2018-08-22T11:45:35.338Z,56.70
2018-08-22T11:48:15.928Z,57.00
2018-08-22T11:50:57.437Z,56.70
2018-08-22T11:53:39.225Z,57.70
2018-08-22T11:56:20.624Z,57.70
2018-08-22T11:59:01.556Z,58.00
2018-08-22T12:01:42.993Z,58.30
2018-08-22T12:07:09.216Z,58.70
2018-08-22T12:09:49.728Z,58.30
2018-08-22T12:12:30.433Z,58.40
2018-08-22T12:15:11.125Z,58.10
2018-08-22T12:17:51.767Z,58.20
2018-08-22T12:20:32.434Z,57.50
2018-08-22T12:23:13.170Z,58.60
2018-08-22T12:25:54.252Z,58.90
2018-08-22T12:28:35.205Z,59.00
2018-08-22T12:31:15.872Z,59.00
2018-08-22T12:33:56.998Z,59.00
2018-08-22T12:36:38.023Z,58.70
2018-08-22T12:39:18.784Z,59.30
2018-08-22T12:42:00.261Z,59.80
2018-08-22T12:44:41.390Z,59.70
2018-08-22T12:47:22.529Z,60.00
2018-08-22T12:50:03.101Z,59.70
2018-08-22T12:52:44.560Z,60.00
2018-08-22T12:55:25.221Z,60.20
2018-08-22T12:58:05.925Z,59.90
2018-08-22T13:00:47.373Z,59.40
2018-08-22T13:03:27.846Z,58.30
2018-08-22T13:06:09.274Z,58.20
2018-08-22T13:08:50.029Z,58.90
2018-08-22T13:11:30.703Z,58.60
2018-08-22T13:14:11.300Z,58.90
2018-08-22T13:16:51.833Z,58.60
2018-08-22T13:19:33.301Z,58.90
2018-08-22T13:22:14.607Z,59.60
2018-08-22T13:24:55.526Z,59.00
2018-08-22T13:27:37.058Z,58.60
2018-08-22T13:30:18.584Z,58.60
2018-08-22T13:32:59.376Z,59.40
2018-08-22T13:35:40.806Z,59.20
2018-08-22T13:38:21.349Z,58.20
2018-08-22T13:41:02.165Z,58.00
2018-08-22T13:43:42.765Z,56.00
2018-08-22T13:46:24.333Z,57.10
2018-08-22T13:49:05.759Z,55.40
2018-08-22T13:51:47.224Z,55.30
2018-08-22T13:54:28.644Z,54.90
2018-08-22T13:57:10.149Z,54.80
2018-08-22T13:59:51.788Z,55.90
2018-08-22T14:02:34.055Z,55.30
2018-08-22T14:05:15.132Z,53.60
2018-08-22T14:07:55.780Z,54.10
2018-08-22T14:10:37.195Z,55.90
2018-08-22T14:13:21.469Z,56.50
2018-08-22T14:16:02.257Z,57.30
2018-08-22T14:18:42.759Z,56.90
2018-08-22T14:21:23.496Z,56.20
2018-08-22T14:24:05.045Z,54.20
2018-08-22T14:26:46.405Z,53.00
2018-08-22T14:29:27.119Z,54.00
2018-08-22T14:32:07.752Z,53.00
2018-08-22T14:34:48.359Z,54.10
2018-08-22T14:37:28.973Z,54.90
2018-08-22T14:40:09.820Z,56.20
2018-08-22T14:42:50.366Z,56.50
2018-08-22T14:45:31.040Z,56.20
2018-08-22T14:48:11.570Z,55.90
2018-08-22T14:50:52.076Z,55.90
2018-08-22T14:53:32.892Z,56.10
2018-08-22T14:56:13.700Z,55.90
2018-08-22T14:58:55.021Z,56.40
2018-08-22T15:01:35.506Z,57.30
2018-08-22T15:04:16.219Z,57.80
2018-08-22T15:06:56.731Z,58.60
2018-08-22T15:09:37.457Z,58.90
2018-08-22T15:12:18.182Z,59.30
2018-08-22T15:14:58.706Z,59.60
2018-08-22T15:17:39.449Z,60.20
2018-08-22T15:20:20.119Z,61.00
2018-08-22T15:23:01.506Z,60.70
2018-08-22T15:25:42.121Z,60.60
2018-08-22T15:28:22.642Z,61.40
2018-08-22T15:31:03.321Z,61.10
2018-08-22T15:33:44.538Z,61.50
2018-08-22T15:36:25.651Z,62.20
2018-08-22T15:39:07.654Z,62.80
2018-08-22T15:41:48.592Z,62.50
2018-08-22T15:44:29.205Z,62.40
2018-08-22T15:47:10.907Z,63.10
2018-08-22T15:49:51.993Z,62.70
2018-08-22T15:52:33.239Z,63.10
2018-08-22T15:55:13.802Z,63.30
2018-08-22T15:57:56.421Z,62.50
2018-08-22T16:00:42.593Z,62.60
2018-08-22T16:03:24.966Z,63.60
2018-08-22T16:06:06.489Z,63.50
2018-08-22T16:08:48.100Z,63.30
2018-08-22T16:11:29.609Z,63.40
2018-08-22T16:14:10.188Z,63.80
2018-08-22T16:16:51.557Z,63.70
2018-08-22T16:19:32.327Z,64.40
2018-08-22T16:22:13.858Z,64.80
2018-08-22T16:24:54.506Z,65.20
2018-08-22T16:27:38.921Z,66.20
2018-08-22T16:30:20.346Z,67.20
2018-08-22T16:33:01.058Z,67.70
2018-08-22T16:35:41.578Z,68.20
2018-08-22T16:38:22.162Z,68.30
2018-08-22T16:41:02.772Z,68.30
2018-08-22T16:43:44.349Z,68.40
2018-08-22T16:46:25.770Z,68.80
2018-08-22T16:49:06.517Z,68.30
2018-08-22T16:51:47.323Z,68.60
2018-08-22T16:54:27.950Z,69.40
2018-08-22T16:57:09.393Z,69.50
2018-08-22T16:59:49.883Z,70.00
2018-08-22T17:02:30.571Z,70.50
2018-08-22T17:05:12.040Z,70.70
2018-08-22T17:07:52.874Z,71.60
2018-08-22T17:10:41.501Z,71.80
2018-08-22T17:13:26.242Z,72.00
2018-08-22T17:16:06.916Z,73.70
2018-08-22T17:18:48.570Z,73.70
2018-08-22T17:21:29.883Z,73.80
2018-08-22T17:24:10.526Z,74.10
2018-08-22T17:26:51.207Z,74.50
2018-08-22T17:29:31.754Z,74.60
2018-08-22T17:32:12.397Z,74.80
2018-08-22T17:34:52.994Z,74.80
2018-08-22T17:37:33.626Z,74.60
2018-08-22T17:40:14.182Z,74.60
2018-08-22T17:42:55.454Z,74.70
2018-08-22T17:45:38.302Z,74.70
2018-08-22T17:48:19.128Z,74.70
2018-08-22T17:50:59.825Z,74.80
2018-08-22T17:53:41.306Z,74.80
2018-08-22T17:56:23.074Z,74.90
2018-08-22T17:59:04.329Z,74.70
2018-08-22T18:01:44.979Z,74.90
2018-08-22T18:04:26.415Z,75.20
2018-08-22T18:07:07.011Z,75.20
2018-08-22T18:09:48.829Z,75.10
2018-08-22T18:12:31.207Z,75.30
2018-08-22T18:15:12.045Z,75.40
2018-08-22T18:17:52.725Z,75.50
2018-08-22T18:20:38.473Z,75.30
2018-08-22T18:23:20.501Z,75.10
2018-08-22T18:26:03.670Z,75.00
2018-08-22T18:28:45.069Z,74.60
2018-08-22T18:31:26.438Z,74.50
2018-08-22T18:34:07.943Z,74.50
2018-08-22T18:36:49.490Z,74.50
2018-08-22T18:39:30.111Z,74.50
2018-08-22T18:42:10.726Z,74.30
2018-08-22T18:44:51.516Z,74.10
2018-08-22T18:47:34.120Z,72.80
2018-08-22T18:50:15.998Z,72.50
2018-08-22T18:52:58.402Z,71.80
2018-08-22T18:55:39.738Z,71.30
2018-08-22T18:58:20.469Z,71.10
2018-08-22T19:01:01.159Z,70.10
2018-08-22T19:03:42.494Z,68.90
2018-08-22T19:06:23.115Z,68.60
2018-08-22T19:09:04.348Z,68.80
2018-08-22T19:11:45.318Z,68.10
2018-08-22T19:14:26.467Z,67.60
2018-08-22T19:17:07.960Z,68.00
2018-08-22T19:19:49.125Z,67.80
2018-08-22T19:22:29.629Z,67.80
2018-08-22T19:25:10.382Z,68.10
2018-08-22T19:27:51.753Z,68.10
2018-08-22T19:30:33.342Z,68.10
2018-08-22T19:33:17.178Z,67.10
2018-08-22T19:35:58.696Z,66.70
2018-08-22T19:38:40.139Z,65.50
2018-08-22T19:41:21.105Z,65.00
2018-08-22T19:44:02.603Z,65.60
2018-08-22T19:46:43.862Z,65.60
2018-08-22T19:49:24.629Z,67.00
2018-08-22T19:52:06.069Z,67.30
2018-08-22T19:54:46.619Z,67.50
2018-08-22T19:57:33.420Z,67.80
2018-08-22T20:00:15.411Z,67.80
2018-08-22T20:02:56.361Z,68.50
2018-08-22T20:05:41.956Z,69.20
2018-08-22T20:08:28.436Z,69.00
2018-08-22T20:11:09.905Z,69.10
2018-08-22T20:13:52.696Z,69.40
2018-08-22T20:16:34.033Z,70.10
2018-08-22T20:19:15.425Z,70.90
2018-08-22T20:21:57.009Z,71.40
2018-08-22T20:24:39.157Z,71.50
2018-08-22T20:27:20.332Z,71.60
2018-08-22T20:30:07.123Z,72.00
2018-08-22T20:32:50.501Z,72.20
2018-08-22T20:35:34.320Z,72.60
2018-08-22T20:38:15.785Z,72.50
2018-08-22T20:41:00.526Z,72.70
2018-08-22T20:43:41.905Z,72.80
2018-08-22T20:46:22.435Z,73.10
2018-08-22T20:49:03.011Z,73.30
2018-08-22T20:51:44.561Z,73.50
2018-08-22T20:54:25.183Z,73.50
2018-08-22T20:57:05.817Z,72.50
2018-08-22T20:59:46.425Z,72.10
2018-08-22T21:02:27.105Z,72.20
2018-08-22T21:05:08.534Z,72.20
2018-08-22T21:07:49.271Z,72.00
2018-08-22T21:10:29.969Z,72.30
2018-08-22T21:13:30.970Z,72.00
2018-08-22T21:16:12.349Z,71.90
2018-08-22T21:18:52.905Z,71.70
2018-08-22T21:21:34.377Z,71.60
2018-08-22T21:24:15.064Z,71.60
2018-08-22T21:26:56.531Z,71.40
2018-08-22T21:29:37.043Z,71.10
2018-08-22T21:32:19.245Z,70.40
2018-08-22T21:35:00.093Z,67.50
2018-08-22T21:37:41.661Z,65.70
2018-08-22T21:40:23.210Z,66.00
2018-08-22T21:43:03.726Z,65.90
2018-08-22T21:45:44.563Z,64.50
2018-08-22T21:48:26.848Z,64.40
2018-08-22T21:51:07.541Z,63.40
2018-08-22T21:53:49.025Z,63.10
2018-08-22T21:56:29.614Z,61.40
2018-08-22T21:59:11.773Z,61.60
2018-08-22T22:01:58.572Z,61.90
2018-08-22T22:04:41.145Z,62.60
2018-08-22T22:07:22.186Z,64.00
2018-08-22T22:10:08.825Z,65.90
2018-08-22T22:12:50.097Z,66.00
2018-08-22T22:15:36.625Z,65.80
2018-08-22T22:18:17.969Z,65.80
2018-08-22T22:20:59.451Z,65.70
2018-08-22T22:23:45.890Z,66.10
2018-08-22T22:26:26.800Z,66.30
2018-08-22T22:29:08.266Z,66.40
2018-08-22T22:31:48.826Z,66.80
2018-08-22T22:34:29.562Z,68.10
2018-08-22T22:37:10.118Z,69.90
2018-08-22T22:39:50.739Z,71.10
2018-08-22T22:42:32.303Z,71.80
2018-08-22T22:45:13.831Z,72.80
2018-08-22T22:47:55.392Z,72.80
2018-08-22T22:50:36.953Z,72.30
2018-08-22T22:53:17.533Z,72.20
2018-08-22T22:55:58.999Z,72.50
2018-08-22T22:58:40.452Z,72.50
2018-08-22T23:01:21.103Z,72.70
2018-08-22T23:04:01.733Z,73.20
2018-08-22T23:06:42.335Z,73.50
2018-08-22T23:09:23.774Z,75.70
2018-08-22T23:12:04.506Z,76.60
2018-08-22T23:14:46.059Z,75.00
2018-08-22T23:17:27.282Z,74.80
2018-08-22T23:20:13.315Z,75.10
2018-08-22T23:22:54.053Z,75.40
2018-08-22T23:25:35.395Z,76.70
2018-08-22T23:28:16.217Z,78.10
2018-08-22T23:30:57.657Z,78.00
2018-08-22T23:33:38.437Z,77.70
2018-08-22T23:36:19.863Z,77.40
2018-08-22T23:39:00.938Z,77.20
2018-08-22T23:41:41.988Z,76.20
2018-08-22T23:44:22.641Z,74.20
2018-08-22T23:47:04.014Z,74.60
2018-08-22T23:49:46.250Z,72.20
2018-08-22T23:52:27.074Z,72.00
2018-08-22T23:55:08.620Z,71.40
2018-08-22T23:57:50.125Z,70.70
